Ashburn Park, Illinois
Current Conditions -  °F | °C
As of 2:53 AM on Friday 28 Nov 2014 (Local Time) from KMDW Reporting Station
Overcast Overcast  
Wind Chill: 13°   Ceiling: 11000
Heat Index: 21°   Visibility: 10mi
Dew Point: 11°   Wind: 6mph
Humidity: 65%   Direction: 220°SW
Pressure: 30.37"   Gusts: NA
Location:  41.7473°N, 87.7132°W
Report Text: KMDW 280853Z 22005KT 10SM BKN110 OVC180 M06/M12 A3037 RMK AO2 SLP301 T10611117 56001 $
Loading
Personal Weather Stations






























Interactive Weather Map New forecast layout! Learn more

10-Day Weather Forecast

Advertisements
Track Severe Weather on mobile